Home > Products > Valid Products > MTR

000
SAUS44 KLZK 280654
MTRMWT
METAR KMWT 280653Z AUTO 00000KT 8SM CLR 17/16 A3005 RMK AO2 SLP167
T01670156





000
SAUS44 KLZK 280654
MTRMWT
METAR KMWT 280653Z AUTO 00000KT 8SM CLR 17/16 A3005 RMK AO2 SLP167
T01670156





000
SAUS44 KLZK 280554
MTRMWT
METAR KMWT 280553Z AUTO 00000KT 10SM CLR 17/16 A3005 RMK AO2 SLP167
T01720161 10250 20172 402890150 55000





000
SAUS44 KLZK 280554
MTRMWT
METAR KMWT 280553Z AUTO 00000KT 10SM CLR 17/16 A3005 RMK AO2 SLP167
T01720161 10250 20172 402890150 55000





000
SAUS44 KLZK 280454
MTRMWT
METAR KMWT 280453Z AUTO 00000KT 10SM CLR 18/17 A3005 RMK AO2 SLP165
T01830167





000
SAUS44 KLZK 280354
MTRMWT
METAR KMWT 280353Z AUTO 00000KT 10SM CLR 19/17 A3005 RMK AO2 SLP167
T01890172





000
SAUS44 KLZK 280254
MTRMWT
METAR KMWT 280253Z AUTO 00000KT 10SM CLR 19/18 A3005 RMK AO2 SLP167
T01940178 53006





000
SAUS44 KLZK 280254
MTRMWT
METAR KMWT 280253Z AUTO 00000KT 10SM CLR 19/18 A3005 RMK AO2 SLP167
T01940178 53006





000
SAUS44 KLZK 280154
MTRMWT
METAR KMWT 280153Z AUTO 00000KT 10SM CLR 21/18 A3004 RMK AO2 SLP163
T02060183





000
SAUS44 KLZK 280054
MTRMWT
METAR KMWT 280053Z AUTO 00000KT 10SM CLR 22/18 A3003 RMK AO2 SLP162
T02220178





000
SAUS44 KLZK 280054
MTRMWT
METAR KMWT 280053Z AUTO 00000KT 10SM CLR 22/18 A3003 RMK AO2 SLP162
T02220178





000
SAUS44 KLZK 272354
MTRMWT
METAR KMWT 272353Z AUTO 00000KT 10SM CLR 25/18 A3003 RMK AO2 SLP163
T02500183 10289 20250 56006





000
SAUS44 KLZK 272354
MTRMWT
METAR KMWT 272353Z AUTO 00000KT 10SM CLR 25/18 A3003 RMK AO2 SLP163
T02500183 10289 20250 56006





000
SAUS44 KLZK 272254
MTRMWT
METAR KMWT 272253Z AUTO 00000KT 10SM CLR 27/17 A3004 RMK AO2 SLP162
T02720172





000
SAUS44 KLZK 272154
MTRMWT
METAR KMWT 272153Z AUTO VRB04KT 10SM CLR 28/17 A3004 RMK AO2 SLP165
T02780167





000
SAUS44 KLZK 272054
MTRMWT
METAR KMWT 272053Z AUTO VRB05KT 10SM CLR 29/17 A3005 RMK AO2 SLP166
T02890167 58027





000
SAUS44 KLZK 272054
MTRMWT
METAR KMWT 272053Z AUTO VRB05KT 10SM CLR 29/17 A3005 RMK AO2 SLP166
T02890167 58027





000
SAUS44 KLZK 271954
MTRMWT
METAR KMWT 271953Z AUTO 00000KT 10SM CLR 28/16 A3008 RMK AO2 SLP177
T02780156





000
SAUS44 KLZK 271854
MTRMWT
METAR KMWT 271853Z AUTO VRB03KT 10SM CLR 28/16 A3010 RMK AO2 SLP184
T02780161





000
SAUS44 KLZK 271754
MTRMWT
METAR KMWT 271753Z AUTO 31006KT 10SM CLR 27/15 A3013 RMK AO2 SLP195
T02720150 10278 20150 53001





000
SAUS44 KLZK 271754
MTRMWT
METAR KMWT 271753Z AUTO 31006KT 10SM CLR 27/15 A3013 RMK AO2 SLP195
T02720150 10278 20150 53001





000
SAUS44 KLZK 271654
MTRMWT
METAR KMWT 271653Z AUTO 00000KT 10SM CLR 26/14 A3013 RMK AO2 SLP195
T02610144





000
SAUS44 KLZK 271554
MTRMWT
METAR KMWT 271553Z AUTO 17004KT 10SM CLR 26/14 A3012 RMK AO2 SLP192
T02560139





000
SAUS44 KLZK 271554
MTRMWT
METAR KMWT 271553Z AUTO 17004KT 10SM CLR 26/14 A3012 RMK AO2 SLP192
T02560139





000
SAUS44 KLZK 271454
MTRMWT
METAR KMWT 271453Z AUTO 14003KT 10SM CLR 23/16 A3013 RMK AO2 SLP194
T02330156 50008





000
SAUS44 KLZK 271454
MTRMWT
METAR KMWT 271453Z AUTO 14003KT 10SM CLR 23/16 A3013 RMK AO2 SLP194
T02330156 50008





000
SAUS44 KLZK 271354
MTRMWT
METAR KMWT 271353Z AUTO 00000KT 10SM CLR 21/17 A3013 RMK AO2 SLP197
T02060172





000
SAUS44 KLZK 271254
MTRMWT
METAR KMWT 271253Z AUTO 00000KT 10SM CLR 16/15 A3013 RMK AO2 SLP197
T01610150





000
SAUS44 KLZK 271254
MTRMWT
METAR KMWT 271253Z AUTO 00000KT 10SM CLR 16/15 A3013 RMK AO2 SLP197
T01610150





000
SAUS44 KLZK 271154
MTRMWT
METAR KMWT 271153Z AUTO 00000KT 7SM CLR 15/14 A3010 RMK AO2 SLP184
T01500139 10172 20150 51007





000
SAUS44 KLZK 271154
MTRMWT
METAR KMWT 271153Z AUTO 00000KT 7SM CLR 15/14 A3010 RMK AO2 SLP184
T01500139 10172 20150 51007





000
SAUS44 KLZK 271054
MTRMWT
METAR KMWT 271053Z AUTO 00000KT 8SM CLR 16/14 A3010 RMK AO2 SLP183
T01560144





000
SAUS44 KLZK 270954
MTRMWT
METAR KMWT 270953Z AUTO 00000KT 7SM CLR 16/14 A3008 RMK AO2 SLP176
T01560144





000
SAUS44 KLZK 270954
MTRMWT
METAR KMWT 270953Z AUTO 00000KT 7SM CLR 16/14 A3008 RMK AO2 SLP176
T01560144





000
SAUS44 KLZK 270854
MTRMWT
METAR KMWT 270853Z AUTO 00000KT 8SM CLR 16/15 A3008 RMK AO2 SLP175
T01610150 53001





000
SAUS44 KLZK 270754
MTRMWT
METAR KMWT 270753Z AUTO 00000KT 8SM CLR 17/16 A3008 RMK AO2 SLP174
T01670156





000
SAUS44 KLZK 270754
MTRMWT
METAR KMWT 270753Z AUTO 00000KT 8SM CLR 17/16 A3008 RMK AO2 SLP174
T01670156





000
SAUS44 KLZK 270654
MTRMWT
METAR KMWT 270653Z AUTO 00000KT 10SM CLR 17/16 A3008 RMK AO2 SLP174
T01720161





000
SAUS44 KLZK 270554
MTRMWT
METAR KMWT 270553Z AUTO 00000KT 10SM CLR 17/16 A3008 RMK AO2 SLP176
T01720161 10300 20172 403330139 58002





000
SAUS44 KLZK 270554
MTRMWT
METAR KMWT 270553Z AUTO 00000KT 10SM CLR 17/16 A3008 RMK AO2 SLP176
T01720161 10300 20172 403330139 58002





000
SAUS44 KLZK 270454
MTRMWT
METAR KMWT 270453Z AUTO 00000KT 10SM CLR 18/17 A3008 RMK AO2 SLP177
T01780167





000
SAUS44 KLZK 270454
MTRMWT
METAR KMWT 270453Z AUTO 00000KT 10SM CLR 18/17 A3008 RMK AO2 SLP177
T01780167





000
SAUS44 KLZK 270354
MTRMWT
METAR KMWT 270353Z AUTO 00000KT 10SM CLR 18/17 A3008 RMK AO2 SLP178
T01830167





000
SAUS44 KLZK 270354
MTRMWT
METAR KMWT 270353Z AUTO 00000KT 10SM CLR 18/17 A3008 RMK AO2 SLP178
T01830167





000
SAUS44 KLZK 270254
MTRMWT
METAR KMWT 270253Z AUTO 00000KT 10SM CLR 19/17 A3009 RMK AO2 SLP179
T01940167 53007





000
SAUS44 KLZK 270254
MTRMWT
METAR KMWT 270253Z AUTO 00000KT 10SM CLR 19/17 A3009 RMK AO2 SLP179
T01940167 53007





000
SAUS44 KLZK 270154
MTRMWT
METAR KMWT 270153Z AUTO 00000KT 10SM CLR 21/16 A3007 RMK AO2 SLP175
T02110161





000
SAUS44 KLZK 270054
MTRMWT
METAR KMWT 270053Z AUTO 00000KT 10SM CLR 24/16 A3006 RMK AO2 SLP173
T02390161





000
SAUS44 KLZK 270054
MTRMWT
METAR KMWT 270053Z AUTO 00000KT 10SM CLR 24/16 A3006 RMK AO2 SLP173
T02390161





000
SAUS44 KLZK 262354
MTRMWT
METAR KMWT 262353Z AUTO 00000KT 10SM CLR 30/14 A3007 RMK AO2 SLP172
T03000139 10333 20294 56008





000
SAUS44 KLZK 262354
MTRMWT
METAR KMWT 262353Z AUTO 00000KT 10SM CLR 30/14 A3007 RMK AO2 SLP172
T03000139 10333 20294 56008





000
SAUS44 KLZK 262254
MTRMWT
METAR KMWT 262253Z AUTO VRB04KT 10SM CLR 32/13 A3007 RMK AO2 SLP173
T03170128





000
SAUS44 KLZK 262154
MTRMWT
METAR KMWT 262153Z AUTO 01006KT 10SM CLR 32/11 A3008 RMK AO2 SLP178
T03220106





000
SAUS44 KLZK 262054
MTRMWT
METAR KMWT 262053Z AUTO VRB04KT 10SM CLR 33/09 A3009 RMK AO2 SLP179
T03330094 58019





000
SAUS44 KLZK 262054
MTRMWT
METAR KMWT 262053Z AUTO VRB04KT 10SM CLR 33/09 A3009 RMK AO2 SLP179
T03330094 58019





000
SAUS44 KLZK 261954
MTRMWT
METAR KMWT 261953Z AUTO VRB05KT 10SM CLR 32/13 A3011 RMK AO2 SLP186
T03220133





000
SAUS44 KLZK 261954
MTRMWT
METAR KMWT 261953Z AUTO VRB05KT 10SM CLR 32/13 A3011 RMK AO2 SLP186
T03220133





000
SAUS44 KLZK 261854
MTRMWT
METAR KMWT 261853Z AUTO VRB03KT 10SM CLR 31/16 A3013 RMK AO2 SLP193
T03110161





000
SAUS44 KLZK 261854
MTRMWT
METAR KMWT 261853Z AUTO VRB03KT 10SM CLR 31/16 A3013 RMK AO2 SLP193
T03110161





000
SAUS44 KLZK 261754
MTRMWT
METAR KMWT 261753Z AUTO VRB03KT 10SM CLR 29/16 A3015 RMK AO2 SLP200
T02940156 10300 20139 58006





000
SAUS44 KLZK 261754
MTRMWT
METAR KMWT 261753Z AUTO VRB03KT 10SM CLR 29/16 A3015 RMK AO2 SLP200
T02940156 10300 20139 58006





000
SAUS44 KLZK 261654
MTRMWT
METAR KMWT 261653Z AUTO VRB03KT 10SM CLR 29/16 A3016 RMK AO2 SLP204
T02890156





000
SAUS44 KLZK 261554
MTRMWT
METAR KMWT 261553Z AUTO 26003KT 10SM CLR 26/17 A3017 RMK AO2 SLP206
T02610167





000
SAUS44 KLZK 261454
MTRMWT
METAR KMWT 261453Z AUTO 00000KT 10SM CLR 24/15 A3017 RMK AO2 SLP207
T02390150 51009 $





000
SAUS44 KLZK 261454
MTRMWT
METAR KMWT 261453Z AUTO 00000KT 10SM CLR 24/15 A3017 RMK AO2 SLP207
T02390150 51009 $





000
SAUS44 KLZK 261354
MTRMWT
METAR KMWT 261353Z AUTO 00000KT 10SM CLR 20/16 A3016 RMK AO2 SLP208
T02000161





000
SAUS44 KLZK 261354
MTRMWT
METAR KMWT 261353Z AUTO 00000KT 10SM CLR 20/16 A3016 RMK AO2 SLP208
T02000161





000
SAUS44 KLZK 261254
MTRMWT
METAR KMWT 261253Z AUTO 00000KT 10SM CLR 16/14 A3016 RMK AO2 SLP205
T01560144





000
SAUS44 KLZK 261254
MTRMWT
METAR KMWT 261253Z AUTO 00000KT 10SM CLR 16/14 A3016 RMK AO2 SLP205
T01560144





000
SAUS44 KLZK 261154
MTRMWT
METAR KMWT 261153Z AUTO 00000KT 8SM CLR 14/13 A3014 RMK AO2 SLP198
T01390128 10161 20139 53013





000
SAUS44 KLZK 261154
MTRMWT
METAR KMWT 261153Z AUTO 00000KT 8SM CLR 14/13 A3014 RMK AO2 SLP198
T01390128 10161 20139 53013





000
SAUS44 KLZK 261054
MTRMWT
METAR KMWT 261053Z AUTO 00000KT 10SM CLR 14/13 A3012 RMK AO2 SLP190
T01440128





000
SAUS44 KLZK 260954
MTRMWT
METAR KMWT 260953Z AUTO 00000KT 10SM CLR 14/13 A3011 RMK AO2 SLP187
T01440133





000
SAUS44 KLZK 260854
MTRMWT
METAR KMWT 260853Z AUTO 00000KT 10SM CLR 15/14 A3010 RMK AO2 SLP183
T01500139 53001





000
SAUS44 KLZK 260754
MTRMWT
METAR KMWT 260753Z AUTO 00000KT 10SM CLR 15/14 A3010 RMK AO2 SLP182
T01500139





000
SAUS44 KLZK 260754
MTRMWT
METAR KMWT 260753Z AUTO 00000KT 10SM CLR 15/14 A3010 RMK AO2 SLP182
T01500139





000
SAUS44 KLZK 260655
MTRMWT
METAR KMWT 260653Z AUTO 00000KT 10SM CLR 16/14 A3009 RMK AO2 SLP182
T01560144





000
SAUS44 KLZK 260554
MTRMWT
METAR KMWT 260553Z AUTO 00000KT 10SM CLR 16/15 A3010 RMK AO2 SLP183
T01610150 10283 20161 403170161 51001





000
SAUS44 KLZK 260454
MTRMWT
METAR KMWT 260453Z AUTO 00000KT 10SM CLR 17/15 A3010 RMK AO2 SLP183
T01670150





000
SAUS44 KLZK 260454
MTRMWT
METAR KMWT 260453Z AUTO 00000KT 10SM CLR 17/15 A3010 RMK AO2 SLP183
T01670150





000
SAUS44 KLZK 260354
MTRMWT
METAR KMWT 260353Z AUTO 00000KT 10SM CLR 17/15 A3010 RMK AO2 SLP185
T01720150





000
SAUS44 KLZK 260254
MTRMWT
METAR KMWT 260253Z AUTO 00000KT 10SM CLR 18/15 A3009 RMK AO2 SLP182
T01830150 53014





000
SAUS44 KLZK 260154
MTRMWT
METAR KMWT 260153Z AUTO 00000KT 10SM CLR 19/14 A3008 RMK AO2 SLP179
T01940144





000
SAUS44 KLZK 260055
MTRMWT
METAR KMWT 260053Z AUTO 00000KT 10SM CLR 23/13 A3006 RMK AO2 SLP171
T02330128





000
SAUS44 KLZK 260055
MTRMWT
METAR KMWT 260053Z AUTO 00000KT 10SM CLR 23/13 A3006 RMK AO2 SLP171
T02330128





000
SAUS44 KLZK 252354
MTRMWT
METAR KMWT 252353Z AUTO 00000KT 10SM CLR 28/11 A3005 RMK AO2 SLP167
T02830111 10317 20278 56009





000
SAUS44 KLZK 252354
MTRMWT
METAR KMWT 252353Z AUTO 00000KT 10SM CLR 28/11 A3005 RMK AO2 SLP167
T02830111 10317 20278 56009





000
SAUS44 KLZK 252254
MTRMWT
METAR KMWT 252253Z AUTO 00000KT 10SM CLR 31/06 A3005 RMK AO2 SLP166
T03060061





000
SAUS44 KLZK 252254
MTRMWT
METAR KMWT 252253Z AUTO 00000KT 10SM CLR 31/06 A3005 RMK AO2 SLP166
T03060061





000
SAUS44 KLZK 252154
MTRMWT
METAR KMWT 252153Z AUTO VRB03KT 10SM CLR 31/09 A3006 RMK AO2 SLP168
T03060089





000
SAUS44 KLZK 252054
MTRMWT
METAR KMWT 252053Z AUTO VRB03KT 10SM CLR 30/08 A3008 RMK AO2 SLP174
T03000083 58029





000
SAUS44 KLZK 251954
MTRMWT
METAR KMWT 251953Z AUTO 15005KT 10SM CLR 29/10 A3011 RMK AO2 SLP184
T02940100





000
SAUS44 KLZK 251954
MTRMWT
METAR KMWT 251953Z AUTO 15005KT 10SM CLR 29/10 A3011 RMK AO2 SLP184
T02940100





000
SAUS44 KLZK 251854
MTRMWT
METAR KMWT 251853Z AUTO 00000KT 10SM CLR 29/09 A3014 RMK AO2 SLP195
T02890094





000
SAUS44 KLZK 251854
MTRMWT
METAR KMWT 251853Z AUTO 00000KT 10SM CLR 29/09 A3014 RMK AO2 SLP195
T02890094





000
SAUS44 KLZK 251754
MTRMWT
METAR KMWT 251753Z AUTO 10SM CLR 28/11 A3017 RMK AO2 SLP203
T02830106 10283 20178 50001





000
SAUS44 KLZK 251654
MTRMWT
METAR KMWT 251653Z AUTO VRB06KT 10SM CLR 28/11 A3017 RMK AO2 SLP206
T02780106





000
SAUS44 KLZK 251554
MTRMWT
METAR KMWT 251553Z AUTO VRB03KT 10SM CLR 27/11 A3017 RMK AO2 SLP204
T02670106





000
SAUS44 KLZK 251454
MTRMWT
METAR KMWT 251453Z AUTO VRB04KT 10SM CLR 25/11 A3016 RMK AO2 SLP203
T02500106 51014





000
SAUS44 KLZK 251454
MTRMWT
METAR KMWT 251453Z AUTO VRB04KT 10SM CLR 25/11 A3016 RMK AO2 SLP203
T02500106 51014





000
SAUS44 KLZK 251354
MTRMWT
METAR KMWT 251353Z AUTO VRB03KT 10SM BKN075 23/16 A3015 RMK AO2
SLP201 T02280156





000
SAUS44 KLZK 251354
MTRMWT
METAR KMWT 251353Z AUTO VRB03KT 10SM BKN075 23/16 A3015 RMK AO2
SLP201 T02280156





000
SAUS44 KLZK 251254
MTRMWT
METAR KMWT 251253Z AUTO 00000KT 10SM OVC070 19/18 A3013 RMK AO2
SLP195 T01940183





000
SAUS44 KLZK 251254
MTRMWT
METAR KMWT 251253Z AUTO 00000KT 10SM OVC070 19/18 A3013 RMK AO2
SLP195 T01940183





000
SAUS44 KLZK 251154
MTRMWT
METAR KMWT 251153Z AUTO 00000KT 10SM SCT075 18/17 A3012 RMK AO2
SLP190 T01830167 10228 20183 53009





000
SAUS44 KLZK 251154
MTRMWT
METAR KMWT 251153Z AUTO 00000KT 10SM SCT075 18/17 A3012 RMK AO2
SLP190 T01830167 10228 20183 53009





000
SAUS44 KLZK 251054
MTRMWT
METAR KMWT 251053Z AUTO 00000KT 10SM BKN075 19/17 A3010 RMK AO2
SLP182 T01940172





000
SAUS44 KLZK 251054
MTRMWT
METAR KMWT 251053Z AUTO 00000KT 10SM BKN075 19/17 A3010 RMK AO2
SLP182 T01940172





000
SAUS44 KLZK 250954
MTRMWT
METAR KMWT 250953Z AUTO 00000KT 10SM FEW065 21/18 A3009 RMK AO2
SLP177 T02060183





000
SAUS44 KLZK 250854
MTRMWT
METAR KMWT 250853Z AUTO 00000KT 10SM BKN065 21/20 A3009 RMK AO2
SLP178 T02110200 53001





000
SAUS44 KLZK 250754
MTRMWT
METAR KMWT 250753Z AUTO 00000KT 10SM BKN060 22/20 A3008 RMK AO2
SLP175 T02170200





000
SAUS44 KLZK 250754
MTRMWT
METAR KMWT 250753Z AUTO 00000KT 10SM BKN060 22/20 A3008 RMK AO2
SLP175 T02170200





    US Dept of Commerce
    National Oceanic and Atmospheric Administration
    National Weather Service
    1325 East West Highway
    Silver Spring, MD 20910
    Page Author: NWS Internet Services Team
Disclaimer
Information Quality
Credits
Glossary
Privacy Policy
Freedom of Information Act (FOIA)
About Us
Career Opportunities